Time;durP1;ratioP1;P1;durP2;ratioP2;P2;SDS_P1;SDS_P2;PMS_P1;PMS_P2;Temp;Humidity;BMP_temperature;BMP_pressure;BME280_temperature;BME280_humidity;BME280_pressure;Samples;Min_cycle;Max_cycle;Signal;HPM_P1;HPM_P2
2021/01/26 00:00:28;;;;;;;5.40;2.97;;;1.60;99.90;;;;;;10146464;28;87649;-72
2021/01/26 00:05:30;;;;;;;4.37;2.73;;;1.70;99.90;;;;;;10131126;28;86885;-72
2021/01/26 00:10:32;;;;;;;7.43;2.93;;;1.70;99.90;;;;;;10107445;28;90386;-72
2021/01/26 00:15:34;;;;;;;5.67;3.00;;;1.80;99.90;;;;;;10121025;28;89033;-72
2021/01/26 00:20:36;;;;;;;5.87;3.63;;;1.80;99.90;;;;;;10133814;28;88569;-72
2021/01/26 00:25:42;;;;;;;5.63;3.03;;;1.80;99.90;;;;;;10144889;28;87576;-72
2021/01/26 00:30:44;;;;;;;5.93;3.50;;;1.80;99.90;;;;;;10120132;28;88136;-71
2021/01/26 00:35:46;;;;;;;6.50;3.20;;;1.80;99.90;;;;;;10127751;28;87971;-71
2021/01/26 00:40:48;;;;;;;5.43;2.83;;;1.80;99.90;;;;;;10152745;28;88493;-72
2021/01/26 00:45:50;;;;;;;4.63;2.80;;;1.80;99.90;;;;;;10139742;28;88160;-73
2021/01/26 00:50:51;;;;;;;6.20;2.93;;;1.80;99.90;;;;;;10128604;28;89571;-73
2021/01/26 00:55:54;;;;;;;4.67;3.03;;;1.70;99.90;;;;;;10152783;28;86750;-73
2021/01/26 01:00:56;;;;;;;6.77;3.10;;;1.70;99.90;;;;;;10131757;28;87616;-73
2021/01/26 01:06:00;;;;;;;6.27;2.87;;;1.80;99.90;;;;;;10136824;28;88718;-73
2021/01/26 01:11:03;;;;;;;5.33;3.07;;;1.90;99.90;;;;;;10150741;28;88924;-73
2021/01/26 01:16:05;;;;;;;4.57;3.03;;;1.90;99.90;;;;;;10141048;28;88021;-73
2021/01/26 01:21:07;;;;;;;7.57;3.20;;;1.90;99.90;;;;;;10135915;28;87938;-73
2021/01/26 01:26:09;;;;;;;5.30;3.37;;;1.90;99.90;;;;;;10150878;28;87214;-73
2021/01/26 01:31:11;;;;;;;5.90;3.03;;;1.90;99.90;;;;;;10143637;28;87142;-73
2021/01/26 01:36:12;;;;;;;5.80;3.13;;;1.90;99.90;;;;;;10144944;28;89580;-72
2021/01/26 01:41:15;;;;;;;5.83;3.10;;;1.90;99.90;;;;;;10145401;28;87742;-73
2021/01/26 01:46:21;;;;;;;6.83;3.50;;;1.90;99.90;;;;;;10139915;28;86747;-73
2021/01/26 01:51:26;;;;;;;7.60;3.67;;;1.90;99.90;;;;;;10129187;28;87532;-71
2021/01/26 01:56:32;;;;;;;7.47;3.13;;;1.90;99.90;;;;;;10138823;28;88869;-72
2021/01/26 02:01:35;;;;;;;6.67;3.37;;;1.80;99.90;;;;;;10142202;28;88504;-71
2021/01/26 02:06:39;;;;;;;7.57;3.50;;;1.80;99.90;;;;;;10134389;28;87395;-72
2021/01/26 02:11:44;;;;;;;7.90;3.50;;;1.80;99.90;;;;;;10150443;28;87913;-71
2021/01/26 02:16:59;;;;;;;7.50;3.63;;;1.70;99.90;;;;;;10146576;28;88076;-72
2021/01/26 02:22:42;;;;;;;7.47;3.63;;;1.70;99.90;;;;;;10127311;28;87600;-73
2021/01/26 02:28:25;;;;;;;8.90;4.00;;;1.60;99.90;;;;;;10147170;28;88120;-73
2021/01/26 02:34:14;;;;;;;9.03;3.63;;;1.50;99.90;;;;;;9933775;29;87771;-73
2021/01/26 02:39:34;;;;;;;8.80;4.00;;;1.50;99.90;;;;;;9941029;29;87122;-73
2021/01/26 02:44:45;;;;;;;9.10;4.10;;;1.50;99.90;;;;;;9948139;29;88822;-73
2021/01/26 02:49:51;;;;;;;9.80;4.40;;;1.40;99.90;;;;;;9961359;29;87984;-73
2021/01/26 02:55:00;;;;;;;7.80;3.90;;;1.40;99.90;;;;;;9951240;29;89920;-73
2021/01/26 03:00:09;;;;;;;8.30;4.33;;;1.40;99.90;;;;;;9952911;29;88732;-73
2021/01/26 03:05:18;;;;;;;9.20;4.23;;;1.30;99.90;;;;;;9900421;29;88679;-73
2021/01/26 03:10:25;;;;;;;9.27;4.20;;;1.30;99.90;;;;;;10035688;28;90379;-73
2021/01/26 03:15:32;;;;;;;8.20;3.90;;;1.20;99.90;;;;;;10094585;28;88814;-72
2021/01/26 03:20:38;;;;;;;7.87;3.67;;;1.10;99.90;;;;;;10093880;28;88944;-72
2021/01/26 03:25:46;;;;;;;7.30;3.73;;;1.00;99.90;;;;;;10094665;28;89085;-73
2021/01/26 03:30:51;;;;;;;9.87;4.27;;;1.00;99.90;;;;;;10094529;28;89169;-73
2021/01/26 03:35:53;;;;;;;7.17;3.83;;;1.00;99.90;;;;;;10108070;28;89129;-73
2021/01/26 03:40:56;;;;;;;10.03;4.37;;;0.90;99.90;;;;;;10091069;28;88750;-73
2021/01/26 03:46:09;;;;;;;11.47;4.40;;;1.00;99.90;;;;;;10093495;28;89907;-73
2021/01/26 03:51:19;;;;;;;12.93;5.00;;;1.00;99.90;;;;;;10093750;28;89095;-73
2021/01/26 03:56:34;;;;;;;12.37;5.00;;;1.10;99.90;;;;;;10097381;28;89002;-73
2021/01/26 04:01:40;;;;;;;13.03;5.00;;;1.10;99.90;;;;;;10091044;28;88978;-73
2021/01/26 04:06:47;;;;;;;10.53;4.73;;;1.20;99.90;;;;;;10091874;28;88953;-73
2021/01/26 04:11:54;;;;;;;10.53;4.60;;;1.20;99.90;;;;;;10091206;28;88856;-73
2021/01/26 04:17:00;;;;;;;11.10;4.67;;;1.20;99.90;;;;;;10095901;28;89976;-73
2021/01/26 04:22:03;;;;;;;9.53;4.20;;;1.30;99.90;;;;;;10092454;28;87910;-73
2021/01/26 04:27:10;;;;;;;10.60;4.50;;;1.30;99.90;;;;;;10096859;28;88937;-73
2021/01/26 04:32:12;;;;;;;10.17;4.77;;;1.20;99.90;;;;;;10091613;28;89216;-73
2021/01/26 04:37:17;;;;;;;9.40;4.17;;;1.10;99.90;;;;;;10094211;28;89685;-73
2021/01/26 04:42:26;;;;;;;8.57;4.27;;;1.00;99.90;;;;;;10089192;28;89027;-73
2021/01/26 04:47:34;;;;;;;10.97;4.60;;;0.90;99.90;;;;;;10089187;28;88671;-73
2021/01/26 04:53:00;;;;;;;12.87;5.00;;;0.90;99.90;;;;;;10091559;28;89118;-73
2021/01/26 04:58:21;;;;;;;9.23;4.17;;;0.80;99.90;;;;;;10091937;28;91309;-73
2021/01/26 05:03:41;;;;;;;10.10;4.10;;;0.70;99.90;;;;;;10091567;28;88784;-73
2021/01/26 05:08:49;;;;;;;14.13;4.80;;;0.70;99.90;;;;;;10088597;28;89547;-73
2021/01/26 05:13:58;;;;;;;10.67;3.83;;;0.60;99.90;;;;;;10090101;28;88518;-73
2021/01/26 05:19:06;;;;;;;7.03;3.47;;;0.60;99.90;;;;;;10089815;28;89126;-73
2021/01/26 05:24:19;;;;;;;8.43;4.17;;;0.60;99.90;;;;;;10090378;28;89238;-73
2021/01/26 05:29:21;;;;;;;8.03;3.57;;;0.60;99.90;;;;;;10095517;28;90064;-73
2021/01/26 05:34:24;;;;;;;7.07;3.47;;;0.70;99.90;;;;;;10096475;28;88882;-73
2021/01/26 05:39:33;;;;;;;7.80;3.67;;;0.70;99.60;;;;;;10093374;28;88834;-73
2021/01/26 05:44:36;;;;;;;6.93;3.80;;;0.80;99.60;;;;;;10098732;28;88793;-73
2021/01/26 05:49:39;;;;;;;6.43;3.27;;;0.80;99.40;;;;;;10090315;28;89199;-73
2021/01/26 05:54:47;;;;;;;8.27;4.27;;;0.90;99.30;;;;;;10092726;28;89359;-73
2021/01/26 05:59:50;;;;;;;6.57;3.60;;;0.90;99.10;;;;;;10092438;28;91062;-73
2021/01/26 06:04:51;;;;;;;6.53;3.30;;;1.00;99.10;;;;;;10097081;28;88171;-73
2021/01/26 06:09:53;;;;;;;7.10;3.60;;;1.00;98.90;;;;;;10096302;28;88926;-73
2021/01/26 06:15:09;;;;;;;7.07;3.67;;;1.10;98.80;;;;;;10095801;28;88866;-73
2021/01/26 06:20:21;;;;;;;9.33;2.93;;;1.10;98.70;;;;;;10095811;28;89604;-74
2021/01/26 06:25:26;;;;;;;7.00;3.17;;;0.90;98.50;;;;;;10095286;28;88835;-73
2021/01/26 06:30:50;;;;;;;6.50;2.80;;;0.90;98.40;;;;;;10095236;28;89136;-74
2021/01/26 06:36:05;;;;;;;8.60;3.30;;;0.80;98.40;;;;;;10092561;28;89010;-73
2021/01/26 06:41:28;;;;;;;5.80;3.30;;;0.60;98.40;;;;;;10095054;28;89726;-73
2021/01/26 06:46:43;;;;;;;6.97;3.27;;;0.60;98.70;;;;;;10096320;28;91643;-73
2021/01/26 06:52:06;;;;;;;5.27;2.93;;;0.60;98.20;;;;;;10091926;28;88829;-73
2021/01/26 06:57:47;;;;;;;6.27;2.70;;;0.50;98.20;;;;;;10095915;28;88622;-73
2021/01/26 07:03:18;;;;;;;7.17;3.10;;;0.50;98.10;;;;;;9883027;29;90138;-73
2021/01/26 07:08:45;;;;;;;6.23;2.97;;;0.50;97.80;;;;;;9882225;29;88935;-73
2021/01/26 07:13:54;;;;;;;4.77;2.60;;;0.60;97.80;;;;;;9877562;29;91173;-73
2021/01/26 07:19:23;;;;;;;6.83;3.20;;;0.70;97.80;;;;;;9879683;29;90061;-72
2021/01/26 07:24:36;;;;;;;6.43;3.40;;;0.80;97.80;;;;;;9884153;29;89368;-75
2021/01/26 07:29:54;;;;;;;7.07;3.20;;;0.80;97.70;;;;;;9878669;29;89285;-72
2021/01/26 07:35:07;;;;;;;8.00;3.67;;;0.70;97.80;;;;;;9893372;28;89080;-72
2021/01/26 07:40:18;;;;;;;7.27;3.43;;;0.80;97.90;;;;;;10090295;28;89048;-72
2021/01/26 07:45:25;;;;;;;8.47;4.37;;;0.90;97.90;;;;;;10086822;28;89538;-72
2021/01/26 07:50:32;;;;;;;6.37;3.37;;;0.90;97.80;;;;;;10091982;28;88186;-72
2021/01/26 07:55:39;;;;;;;6.90;3.57;;;1.00;97.60;;;;;;10096807;28;88852;-73
2021/01/26 08:00:45;;;;;;;7.03;3.70;;;1.10;97.50;;;;;;10092630;28;88845;-73
2021/01/26 08:05:49;;;;;;;7.50;3.40;;;1.20;97.30;;;;;;10092387;28;89809;-74
2021/01/26 08:11:14;;;;;;;7.00;3.20;;;1.30;97.00;;;;;;10092685;28;89146;-74
2021/01/26 08:16:22;;;;;;;6.23;3.20;;;1.40;96.70;;;;;;10090299;28;89036;-74
2021/01/26 08:21:34;;;;;;;6.00;2.77;;;1.40;96.50;;;;;;10087722;28;89271;-72
2021/01/26 08:26:37;;;;;;;5.93;2.60;;;1.40;96.10;;;;;;10088961;28;90811;-73
2021/01/26 08:31:40;;;;;;;7.17;3.07;;;1.50;96.00;;;;;;10089218;28;89063;-73
2021/01/26 08:36:42;;;;;;;6.27;2.70;;;1.60;95.90;;;;;;10088634;28;89031;-72
2021/01/26 08:41:47;;;;;;;5.60;2.63;;;1.70;95.50;;;;;;10090206;28;90334;-73
2021/01/26 08:46:52;;;;;;;5.13;2.60;;;1.80;95.20;;;;;;10091244;28;88930;-73
2021/01/26 08:51:55;;;;;;;6.57;2.60;;;2.00;95.10;;;;;;10090879;28;88983;-72
2021/01/26 08:56:57;;;;;;;4.73;2.50;;;2.20;95.10;;;;;;10089383;28;89690;-73
2021/01/26 09:01:59;;;;;;;5.43;2.60;;;2.40;95.00;;;;;;10096951;28;89375;-73
2021/01/26 09:07:02;;;;;;;6.43;3.23;;;2.50;94.70;;;;;;10104497;28;88944;-74
2021/01/26 09:12:08;;;;;;;4.83;2.60;;;2.60;94.50;;;;;;10099879;28;88763;-74
2021/01/26 09:17:13;;;;;;;8.67;2.70;;;2.70;94.60;;;;;;10100065;28;88860;-73
2021/01/26 09:22:21;;;;;;;6.80;3.00;;;2.80;94.30;;;;;;10098182;28;88954;-73
2021/01/26 09:27:25;;;;;;;5.33;2.83;;;2.80;94.20;;;;;;10107162;28;89182;-73
2021/01/26 09:32:27;;;;;;;8.83;3.40;;;2.90;94.20;;;;;;10099571;28;88307;-73
2021/01/26 09:37:29;;;;;;;7.40;3.20;;;2.90;94.10;;;;;;10096759;28;89131;-73
2021/01/26 09:42:32;;;;;;;6.33;3.23;;;2.90;94.10;;;;;;10094029;28;89169;-73
2021/01/26 09:47:33;;;;;;;7.07;3.23;;;2.90;94.10;;;;;;10096149;28;91236;-74
2021/01/26 09:52:37;;;;;;;7.03;3.07;;;2.90;94.10;;;;;;10094337;28;89576;-73
2021/01/26 09:57:39;;;;;;;7.27;3.37;;;2.90;94.20;;;;;;10093060;28;89079;-73
2021/01/26 10:02:42;;;;;;;5.00;2.80;;;3.00;94.10;;;;;;10097599;28;89971;-74
2021/01/26 10:07:45;;;;;;;7.30;3.13;;;3.10;94.10;;;;;;10097131;28;88929;-73
2021/01/26 10:12:47;;;;;;;4.73;3.10;;;3.10;93.80;;;;;;10093595;28;88154;-73
2021/01/26 10:17:50;;;;;;;6.83;3.43;;;3.10;93.60;;;;;;10093212;28;89407;-74
2021/01/26 10:23:03;;;;;;;9.40;3.57;;;3.20;93.60;;;;;;10106598;28;88099;-74
2021/01/26 10:28:07;;;;;;;6.50;3.27;;;3.20;93.70;;;;;;10094744;28;88842;-74
2021/01/26 10:33:11;;;;;;;6.97;3.33;;;3.50;93.70;;;;;;10096354;28;90412;-73
2021/01/26 10:38:28;;;;;;;6.67;2.80;;;4.20;93.90;;;;;;10088905;28;91482;-73
2021/01/26 10:43:29;;;;;;;6.13;3.00;;;4.70;92.90;;;;;;10103435;28;89363;-73
2021/01/26 10:48:34;;;;;;;8.40;3.00;;;5.10;92.10;;;;;;10090693;28;89045;-73
2021/01/26 10:53:38;;;;;;;6.00;2.70;;;5.20;91.40;;;;;;10091566;28;88831;-73
2021/01/26 10:58:41;;;;;;;6.10;2.50;;;5.20;90.80;;;;;;10095096;28;89863;-73
2021/01/26 11:03:43;;;;;;;5.13;2.40;;;5.40;90.70;;;;;;10093774;28;88919;-73
2021/01/26 11:08:47;;;;;;;5.37;2.63;;;5.50;89.30;;;;;;10093758;28;89967;-73
2021/01/26 11:13:51;;;;;;;6.47;3.10;;;5.40;87.30;;;;;;10098176;28;89302;-74
2021/01/26 11:18:53;;;;;;;6.47;2.70;;;5.50;87.00;;;;;;10123098;28;87881;-73
2021/01/26 11:23:56;;;;;;;6.83;3.37;;;5.70;87.10;;;;;;10093260;28;90860;-73
2021/01/26 11:28:57;;;;;;;7.53;2.90;;;5.60;86.10;;;;;;10098541;28;91125;-74
2021/01/26 11:33:59;;;;;;;5.83;3.20;;;5.90;86.50;;;;;;10148026;28;87946;-74
2021/01/26 11:39:02;;;;;;;7.18;3.58;;;8.70;85.90;;;;;;10127794;28;89115;-73
2021/01/26 11:44:04;;;;;;;5.53;3.58;;;11.70;82.00;;;;;;10145026;28;87532;-74
2021/01/26 11:49:08;;;;;;;7.10;3.47;;;13.70;73.50;;;;;;10143494;28;87621;-71
2021/01/26 11:54:10;;;;;;;5.63;3.50;;;16.40;66.50;;;;;;10139162;28;89291;-71
2021/01/26 11:59:12;;;;;;;5.07;3.30;;;18.40;56.80;;;;;;10145666;28;88910;-72
2021/01/26 12:04:14;;;;;;;4.90;3.15;;;17.80;51.00;;;;;;10148443;28;86924;-73
2021/01/26 12:09:16;;;;;;;5.78;3.60;;;16.80;49.20;;;;;;10140688;28;88011;-72
2021/01/26 12:14:18;;;;;;;5.70;3.35;;;15.70;47.70;;;;;;10146532;28;87498;-73
2021/01/26 12:19:19;;;;;;;6.35;3.38;;;15.30;49.40;;;;;;10144684;28;88902;-73
2021/01/26 12:24:22;;;;;;;4.55;3.22;;;15.50;49.30;;;;;;10146768;28;87308;-73
2021/01/26 12:29:24;;;;;;;5.10;3.28;;;14.80;48.20;;;;;;10144647;28;88251;-73
2021/01/26 12:34:25;;;;;;;4.55;2.92;;;13.40;48.40;;;;;;10147218;28;88244;-73
2021/01/26 12:39:28;;;;;;;4.90;2.80;;;14.60;49.70;;;;;;10152130;28;87650;-73
2021/01/26 12:44:29;;;;;;;3.75;2.50;;;17.20;47.10;;;;;;10128103;28;89496;-73
2021/01/26 12:49:32;;;;;;;4.95;2.70;;;18.00;45.10;;;;;;10145715;28;87279;-73
2021/01/26 12:54:37;;;;;;;8.10;2.88;;;17.00;44.50;;;;;;10148997;28;86951;-72
2021/01/26 12:59:38;;;;;;;6.43;3.10;;;14.70;44.60;;;;;;10147417;28;89411;-73
2021/01/26 13:04:40;;;;;;;3.83;2.63;;;12.70;46.30;;;;;;10136290;28;90002;-73
2021/01/26 13:09:43;;;;;;;5.47;3.07;;;11.00;48.10;;;;;;10150063;28;88869;-72
2021/01/26 13:14:45;;;;;;;7.00;3.07;;;9.70;49.70;;;;;;10150418;28;87581;-73
2021/01/26 13:19:47;;;;;;;5.70;2.57;;;9.30;51.20;;;;;;10139614;28;87616;-73
2021/01/26 13:24:49;;;;;;;5.03;2.80;;;9.10;52.10;;;;;;10150429;28;88716;-73
2021/01/26 13:29:53;;;;;;;6.27;3.03;;;8.70;52.90;;;;;;10151598;28;87878;-72
2021/01/26 13:34:55;;;;;;;5.83;3.10;;;8.90;53.50;;;;;;10151535;28;87582;-72
2021/01/26 13:40:00;;;;;;;6.83;3.37;;;8.90;54.10;;;;;;10147266;28;87515;-73
2021/01/26 13:45:02;;;;;;;3.87;2.40;;;8.60;53.70;;;;;;10113571;28;89740;-73
2021/01/26 13:50:05;;;;;;;5.73;2.57;;;8.50;54.30;;;;;;10150793;28;88540;-72
2021/01/26 13:55:09;;;;;;;5.73;2.57;;;8.30;54.30;;;;;;10150248;28;87696;-72
2021/01/26 14:00:12;;;;;;;3.67;2.50;;;7.90;54.70;;;;;;10140336;28;89822;-73
2021/01/26 14:05:14;;;;;;;4.03;2.17;;;7.70;55.10;;;;;;10139411;28;89615;-73
2021/01/26 14:10:17;;;;;;;4.63;2.60;;;7.50;55.60;;;;;;10131637;28;87638;-72
2021/01/26 14:15:18;;;;;;;4.47;2.50;;;7.40;55.70;;;;;;10117639;28;87871;-72
2021/01/26 14:20:21;;;;;;;7.73;2.30;;;7.30;56.10;;;;;;10148018;28;87627;-72
2021/01/26 14:25:24;;;;;;;7.10;2.40;;;7.10;56.60;;;;;;10138935;28;87556;-72
2021/01/26 14:30:26;;;;;;;4.43;2.33;;;6.70;56.90;;;;;;10149190;28;87677;-72
2021/01/26 14:35:30;;;;;;;4.27;2.23;;;6.50;57.50;;;;;;10147983;28;88000;-72
2021/01/26 14:40:33;;;;;;;5.17;2.30;;;6.20;58.00;;;;;;10141202;28;88805;-72
2021/01/26 14:45:35;;;;;;;4.67;2.20;;;6.30;58.60;;;;;;10130656;28;88461;-73
2021/01/26 14:50:36;;;;;;;3.90;2.20;;;6.30;59.20;;;;;;10148230;28;88812;-73
2021/01/26 14:55:39;;;;;;;5.17;2.40;;;6.30;58.70;;;;;;10149320;28;89119;-73
2021/01/26 15:00:40;;;;;;;4.27;2.00;;;6.00;58.90;;;;;;10164281;28;88887;-73
2021/01/26 15:05:42;;;;;;;8.33;2.10;;;5.90;59.30;;;;;;10139188;28;89426;-73
2021/01/26 15:10:45;;;;;;;7.67;2.20;;;5.70;59.40;;;;;;10137381;28;87601;-72
2021/01/26 15:15:47;;;;;;;8.80;2.23;;;5.60;59.60;;;;;;10148600;28;87495;-73
2021/01/26 15:20:51;;;;;;;4.53;2.03;;;5.50;59.90;;;;;;10142257;28;88928;-72
2021/01/26 15:25:54;;;;;;;5.03;2.40;;;5.40;60.30;;;;;;10149889;28;87827;-72
2021/01/26 15:30:56;;;;;;;6.43;2.03;;;5.40;60.80;;;;;;10146520;28;88213;-72
2021/01/26 15:35:57;;;;;;;7.03;2.50;;;5.20;61.00;;;;;;10129756;28;88694;-74
2021/01/26 15:41:00;;;;;;;4.40;2.00;;;4.90;61.60;;;;;;10151707;28;88252;-73
2021/01/26 15:46:02;;;;;;;3.90;2.00;;;4.60;62.00;;;;;;10145538;28;87693;-73
2021/01/26 15:51:05;;;;;;;8.07;3.13;;;4.30;62.50;;;;;;10144262;28;87633;-72
2021/01/26 15:56:07;;;;;;;4.40;2.47;;;4.20;63.10;;;;;;10147264;28;87904;-73
2021/01/26 16:01:09;;;;;;;5.10;2.60;;;4.00;63.60;;;;;;10138178;28;87664;-73
2021/01/26 16:06:13;;;;;;;5.00;2.40;;;3.80;64.10;;;;;;10138920;28;88535;-74
2021/01/26 16:11:17;;;;;;;2.93;2.07;;;3.80;64.50;;;;;;10138086;28;88739;-73
2021/01/26 16:16:18;;;;;;;5.17;2.17;;;3.60;64.90;;;;;;10143754;28;86808;-73
2021/01/26 16:21:20;;;;;;;4.13;2.10;;;3.40;65.30;;;;;;10133251;28;87640;-73
2021/01/26 16:26:23;;;;;;;4.17;2.10;;;3.30;65.60;;;;;;10136430;28;87584;-73
2021/01/26 16:31:24;;;;;;;6.50;2.00;;;3.20;66.20;;;;;;10136359;28;88836;-71
2021/01/26 16:36:28;;;;;;;3.73;2.10;;;3.00;66.50;;;;;;10130266;28;88669;-73
2021/01/26 16:41:31;;;;;;;4.10;2.20;;;2.90;67.00;;;;;;10122894;28;88687;-73
2021/01/26 16:46:32;;;;;;;4.07;2.03;;;2.80;67.20;;;;;;10129618;28;91631;-72
2021/01/26 16:51:34;;;;;;;5.50;2.03;;;2.80;67.50;;;;;;10138480;28;88885;-74
2021/01/26 16:56:39;;;;;;;3.07;1.80;;;2.70;67.90;;;;;;10132868;28;87784;-73
2021/01/26 17:01:41;;;;;;;6.40;1.90;;;2.70;68.00;;;;;;10136303;28;88654;-73
2021/01/26 17:06:42;;;;;;;2.90;2.03;;;2.70;68.60;;;;;;10139222;28;86774;-73
2021/01/26 17:11:45;;;;;;;7.20;2.37;;;2.70;69.00;;;;;;10134543;28;88596;-73
2021/01/26 17:16:46;;;;;;;8.80;3.10;;;2.60;69.40;;;;;;10138131;28;87560;-73
2021/01/26 17:21:50;;;;;;;7.97;3.20;;;2.60;69.80;;;;;;10134854;28;89712;-72
2021/01/26 17:26:53;;;;;;;5.03;2.73;;;2.60;70.90;;;;;;10151964;28;88909;-72
2021/01/26 17:31:55;;;;;;;6.33;2.70;;;2.60;70.70;;;;;;10155480;28;88426;-73
2021/01/26 17:36:56;;;;;;;5.57;2.90;;;2.70;71.40;;;;;;10150887;28;87997;-73
2021/01/26 17:42:04;;;;;;;3.93;2.10;;;2.70;72.20;;;;;;10157124;28;88502;-74
2021/01/26 17:47:05;;;;;;;5.47;2.20;;;2.60;72.50;;;;;;10157280;28;88118;-73
2021/01/26 17:52:07;;;;;;;7.37;2.70;;;2.70;73.30;;;;;;10158453;28;87203;-73
2021/01/26 17:57:09;;;;;;;11.53;3.67;;;2.70;73.50;;;;;;10155534;28;88128;-73
2021/01/26 18:02:11;;;;;;;8.90;2.80;;;2.70;73.70;;;;;;10145213;28;87726;-75
2021/01/26 18:07:13;;;;;;;9.33;4.37;;;2.70;74.20;;;;;;10149207;28;87653;-73
2021/01/26 18:12:15;;;;;;;7.30;2.87;;;2.70;74.50;;;;;;10155761;28;89612;-73
2021/01/26 18:17:17;;;;;;;7.37;3.40;;;2.70;74.90;;;;;;10133269;28;86954;-74
2021/01/26 18:22:19;;;;;;;9.23;3.20;;;2.70;75.00;;;;;;10147730;28;87449;-74
2021/01/26 18:27:21;;;;;;;5.97;2.43;;;2.60;75.50;;;;;;10151392;28;87936;-73
2021/01/26 18:32:23;;;;;;;6.00;2.60;;;2.40;75.60;;;;;;10146954;28;87701;-73
2021/01/26 18:37:25;;;;;;;5.83;3.03;;;2.40;76.00;;;;;;10147058;28;87545;-73
2021/01/26 18:42:27;;;;;;;7.60;3.60;;;2.40;76.40;;;;;;10157177;28;87797;-73
2021/01/26 18:47:31;;;;;;;6.20;2.97;;;2.40;76.80;;;;;;10143821;28;87280;-73
2021/01/26 18:52:33;;;;;;;5.13;2.70;;;2.30;77.20;;;;;;10150952;28;87542;-74
2021/01/26 18:57:35;;;;;;;4.47;2.63;;;2.30;77.60;;;;;;10147091;28;87670;-74
2021/01/26 19:02:37;;;;;;;13.33;2.93;;;2.30;77.90;;;;;;10150736;28;88912;-74
2021/01/26 19:07:39;;;;;;;6.27;2.80;;;2.30;78.30;;;;;;10154684;28;87647;-74
2021/01/26 19:12:43;;;;;;;6.93;3.07;;;2.20;78.50;;;;;;10147039;28;88171;-74
2021/01/26 19:17:45;;;;;;;7.43;3.30;;;2.20;79.00;;;;;;10149702;28;88739;-74
2021/01/26 19:22:49;;;;;;;5.33;2.63;;;2.20;79.80;;;;;;10153722;28;88484;-74
2021/01/26 19:27:53;;;;;;;7.87;3.03;;;2.20;80.20;;;;;;10147675;28;88160;-73
2021/01/26 19:32:54;;;;;;;6.60;3.07;;;2.10;80.70;;;;;;10151732;28;89411;-73
2021/01/26 19:37:56;;;;;;;5.97;3.00;;;2.10;81.40;;;;;;10148421;28;87840;-74
2021/01/26 19:42:59;;;;;;;6.47;3.33;;;2.20;82.10;;;;;;10151209;28;87823;-72
2021/01/26 19:48:02;;;;;;;8.87;3.77;;;2.20;83.20;;;;;;10149819;28;88271;-72
2021/01/26 19:53:03;;;;;;;8.43;3.27;;;2.10;82.70;;;;;;10153668;28;90585;-72
2021/01/26 19:58:06;;;;;;;9.80;4.03;;;2.10;83.30;;;;;;10147353;28;88542;-72
2021/01/26 20:03:09;;;;;;;6.93;3.80;;;2.10;83.40;;;;;;10148574;28;89930;-73
2021/01/26 20:08:14;;;;;;;8.70;3.73;;;2.00;83.90;;;;;;10148571;28;87932;-74
2021/01/26 20:13:17;;;;;;;10.30;3.83;;;1.90;84.20;;;;;;10149599;28;87880;-74
2021/01/26 20:18:19;;;;;;;6.87;3.63;;;1.90;84.50;;;;;;10155562;28;88755;-73
2021/01/26 20:23:20;;;;;;;7.03;3.70;;;1.80;84.90;;;;;;10154696;28;88071;-73
2021/01/26 20:28:24;;;;;;;7.07;3.53;;;1.80;85.00;;;;;;10146089;28;87835;-74
2021/01/26 20:33:26;;;;;;;5.43;3.40;;;1.70;85.20;;;;;;10153089;28;87578;-72
2021/01/26 20:38:27;;;;;;;8.47;4.20;;;1.70;85.40;;;;;;10154061;28;87654;-74
2021/01/26 20:43:30;;;;;;;10.37;4.13;;;1.70;85.80;;;;;;10153093;28;88011;-73
2021/01/26 20:48:32;;;;;;;6.83;4.10;;;1.70;86.30;;;;;;10151431;28;88056;-73
2021/01/26 20:53:34;;;;;;;9.97;4.17;;;1.80;86.80;;;;;;10153658;28;87997;-73
2021/01/26 20:58:39;;;;;;;8.67;4.07;;;1.80;86.80;;;;;;10157124;28;88183;-73
2021/01/26 21:03:41;;;;;;;9.83;4.10;;;1.80;86.70;;;;;;10157107;28;88618;-72
2021/01/26 21:08:43;;;;;;;9.13;4.00;;;1.80;86.90;;;;;;10143860;28;88876;-74
2021/01/26 21:13:45;;;;;;;6.87;3.73;;;1.80;86.90;;;;;;10147020;28;88281;-76
2021/01/26 21:18:47;;;;;;;10.30;3.97;;;1.80;87.00;;;;;;10128988;28;89509;-73
2021/01/26 21:23:49;;;;;;;9.50;4.00;;;1.80;87.40;;;;;;10156273;28;89086;-76
2021/01/26 21:28:51;;;;;;;10.33;4.23;;;1.70;88.00;;;;;;10154161;28;87934;-75
2021/01/26 21:33:53;;;;;;;10.30;4.50;;;1.50;88.80;;;;;;10142525;28;91586;-74
2021/01/26 21:38:54;;;;;;;11.37;4.80;;;1.60;89.10;;;;;;10158920;28;87631;-73
2021/01/26 21:43:57;;;;;;;11.73;4.50;;;1.70;89.90;;;;;;10147862;28;87921;-73
2021/01/26 21:54:48;;;;;;;13.80;4.73;;;1.60;90.20;;;;;;10096229;28;87255;-74
2021/01/26 21:59:53;;;;;;;8.20;4.63;;;1.60;90.30;;;;;;10053686;28;87683;-73
2021/01/26 22:04:54;;;;;;;11.37;4.83;;;1.40;90.40;;;;;;10067724;28;88979;-74
2021/01/26 22:09:56;;;;;;;11.37;4.00;;;1.40;90.60;;;;;;10020934;29;89702;-73
2021/01/26 22:14:58;;;;;;;9.93;4.30;;;1.40;90.80;;;;;;10071874;28;87920;-73
2021/01/26 22:20:00;;;;;;;12.50;4.30;;;1.40;91.00;;;;;;10098799;28;87755;-71
2021/01/26 22:25:02;;;;;;;15.80;5.00;;;1.30;91.10;;;;;;10142787;28;88725;-75
2021/01/26 22:30:06;;;;;;;8.93;4.40;;;1.20;91.30;;;;;;10151972;28;89014;-72
2021/01/26 22:35:09;;;;;;;9.53;4.40;;;1.20;91.60;;;;;;10156335;28;87720;-72
2021/01/26 22:40:14;;;;;;;7.57;4.07;;;1.20;91.80;;;;;;10150844;28;88143;-73
2021/01/26 22:45:21;;;;;;;6.57;3.90;;;1.20;91.80;;;;;;10142473;28;88984;-73
2021/01/26 22:50:26;;;;;;;8.70;3.80;;;1.10;92.00;;;;;;10157483;28;87696;-73
2021/01/26 22:55:27;;;;;;;11.53;4.60;;;1.10;92.10;;;;;;10157514;28;87493;-73
2021/01/26 23:00:33;;;;;;;10.93;4.73;;;1.00;92.10;;;;;;10156496;28;87242;-73
2021/01/26 23:05:37;;;;;;;10.03;4.63;;;1.00;92.00;;;;;;10138437;28;89177;-73
2021/01/26 23:10:42;;;;;;;10.27;4.37;;;0.90;92.00;;;;;;10147560;28;87858;-73
2021/01/26 23:15:45;;;;;;;9.83;3.83;;;0.90;92.20;;;;;;10124192;28;89639;-73
2021/01/26 23:20:48;;;;;;;16.40;4.13;;;0.90;92.40;;;;;;10142315;28;87637;-73
2021/01/26 23:25:52;;;;;;;8.07;3.30;;;0.90;92.50;;;;;;10146164;28;88673;-73
2021/01/26 23:30:56;;;;;;;7.17;3.47;;;0.90;92.60;;;;;;10147935;28;88072;-73
2021/01/26 23:35:58;;;;;;;10.63;3.73;;;0.80;92.60;;;;;;10139970;28;88022;-73
2021/01/26 23:40:59;;;;;;;8.60;3.90;;;0.80;92.70;;;;;;10141890;28;87712;-73
2021/01/26 23:46:02;;;;;;;7.77;3.83;;;0.70;92.70;;;;;;10122758;28;88833;-73
2021/01/26 23:51:04;;;;;;;10.03;3.20;;;0.40;92.80;;;;;;10134617;28;87180;-73
2021/01/26 23:56:06;;;;;;;9.80;3.77;;;0.20;92.90;;;;;;10148542;28;87635;-73
